Aviation Digital Data Service (ADDS)

Output produced by METARs form (1026 UTC 07 February 2016)
found at http://aviationweather.gov/adds/metars/
 
KFDY 070520Z 0706/0806 20007KT P6SM SCT120 
     FM071500 22014G22KT P6SM SCT040 OVC120 
     FM072300 22012KT P6SM OVC040